Time;durP1;ratioP1;P1;durP2;ratioP2;P2;SDS_P1;SDS_P2;PMS_P1;PMS_P2;Temp;Humidity;BMP_temperature;BMP_pressure;BME280_temperature;BME280_humidity;BME280_pressure;Samples;Min_cycle;Max_cycle;Signal;HPM_P1;HPM_P2
2022/08/22 00:00:08;;;;;;;6.43;3.78;;;16.90;99.90;;;;;;5025002;28;20095;-59
2022/08/22 00:02:44;;;;;;;9.23;4.07;;;16.80;99.90;;;;;;5024735;28;20053;-58
2022/08/22 00:05:54;;;;;;;9.27;4.40;;;16.80;99.90;;;;;;5024150;28;20115;-58
2022/08/22 00:08:32;;;;;;;8.48;4.32;;;16.80;99.90;;;;;;5009247;28;20045;-59
2022/08/22 00:11:11;;;;;;;7.55;4.93;;;16.70;99.90;;;;;;5026102;28;20408;-58
2022/08/22 00:13:44;;;;;;;8.52;4.47;;;16.70;99.90;;;;;;5024328;28;20160;-58
2022/08/22 00:16:22;;;;;;;8.15;3.85;;;16.70;99.90;;;;;;5025284;28;20470;-58
2022/08/22 00:19:20;;;;;;;7.70;4.00;;;16.70;99.90;;;;;;5023472;28;20056;-58
2022/08/22 00:22:25;;;;;;;7.80;4.68;;;16.70;99.90;;;;;;5026016;28;20122;-58
2022/08/22 00:25:15;;;;;;;14.18;4.95;;;16.70;99.90;;;;;;5024951;28;20041;-58
2022/08/22 00:27:55;;;;;;;10.48;4.90;;;16.70;99.90;;;;;;5023817;28;20115;-58
2022/08/22 00:30:21;;;;;;;8.75;4.45;;;16.70;99.90;;;;;;5024135;28;20037;-57
2022/08/22 00:33:01;;;;;;;9.40;4.10;;;16.60;99.90;;;;;;5021781;28;20077;-56
2022/08/22 00:35:40;;;;;;;7.47;4.35;;;16.70;99.90;;;;;;5022596;28;20072;-57
2022/08/22 00:38:15;;;;;;;7.45;4.65;;;16.70;99.90;;;;;;5025590;28;20049;-58
2022/08/22 00:41:23;;;;;;;11.68;4.85;;;16.70;99.90;;;;;;5024053;28;20061;-58
2022/08/22 00:44:22;;;;;;;10.63;4.68;;;16.70;99.90;;;;;;5001217;28;20050;-58
2022/08/22 00:47:15;;;;;;;7.57;4.10;;;16.70;99.90;;;;;;5024467;28;20037;-57
2022/08/22 00:50:11;;;;;;;9.68;4.60;;;16.60;99.90;;;;;;5022949;28;20091;-58
2022/08/22 00:53:21;;;;;;;7.97;4.40;;;16.60;99.90;;;;;;5024047;28;20400;-58
2022/08/22 00:56:06;;;;;;;7.45;4.55;;;16.60;99.90;;;;;;4987587;28;20062;-58
2022/08/22 00:58:53;;;;;;;5.97;4.65;;;16.60;99.90;;;;;;5022328;28;20053;-58
2022/08/22 01:01:27;;;;;;;8.10;4.40;;;16.60;99.90;;;;;;5023116;28;20056;-58
2022/08/22 01:04:09;;;;;;;7.53;4.05;;;16.60;99.90;;;;;;5037869;28;20042;-56
2022/08/22 01:06:46;;;;;;;10.32;4.88;;;16.60;99.90;;;;;;5021426;28;20514;-59
2022/08/22 01:09:30;;;;;;;7.70;4.57;;;16.70;99.90;;;;;;5023364;28;20104;-59
2022/08/22 01:12:11;;;;;;;9.02;4.80;;;16.60;99.90;;;;;;5021925;28;20083;-58
2022/08/22 01:14:44;;;;;;;10.70;5.40;;;16.60;99.90;;;;;;5022407;28;20042;-58
2022/08/22 01:17:34;;;;;;;11.68;6.10;;;16.60;99.90;;;;;;5024555;28;20041;-58
2022/08/22 01:20:26;;;;;;;11.32;5.78;;;16.70;99.90;;;;;;5023190;28;20041;-58
2022/08/22 01:23:26;;;;;;;11.70;6.25;;;16.60;99.90;;;;;;5015664;28;20565;-58
2022/08/22 01:26:04;;;;;;;10.50;5.70;;;16.60;99.90;;;;;;5023308;28;20051;-58
2022/08/22 01:29:06;;;;;;;10.88;5.97;;;16.60;99.90;;;;;;5024016;28;20045;-57
2022/08/22 01:31:54;;;;;;;12.85;6.38;;;16.60;99.90;;;;;;5020569;28;20132;-58
2022/08/22 01:34:38;;;;;;;15.35;6.75;;;16.60;99.90;;;;;;5020750;28;20113;-58
2022/08/22 01:37:13;;;;;;;11.15;5.82;;;16.50;99.90;;;;;;5023424;28;20410;-59
2022/08/22 01:40:12;;;;;;;9.75;5.75;;;16.50;99.90;;;;;;5022625;28;20384;-58
2022/08/22 01:42:55;;;;;;;9.25;6.07;;;16.50;99.90;;;;;;5021192;28;20468;-58
2022/08/22 01:45:36;;;;;;;14.85;6.88;;;16.50;99.90;;;;;;5022379;28;20488;-58
2022/08/22 01:48:18;;;;;;;14.18;5.95;;;16.40;99.90;;;;;;5020109;28;20099;-58
2022/08/22 01:51:13;;;;;;;10.45;6.10;;;16.40;99.90;;;;;;5022491;28;20056;-57
2022/08/22 01:54:08;;;;;;;10.43;6.15;;;16.40;99.90;;;;;;5021207;28;20052;-58
2022/08/22 01:56:42;;;;;;;11.38;6.07;;;16.40;99.90;;;;;;5021201;28;20741;-58
2022/08/22 01:59:22;;;;;;;14.35;6.70;;;16.30;99.90;;;;;;5003814;28;20042;-58
2022/08/22 02:01:48;;;;;;;10.45;5.40;;;16.30;99.90;;;;;;5023775;28;20042;-58
2022/08/22 02:04:42;;;;;;;9.50;6.13;;;16.30;99.90;;;;;;5021522;28;20052;-58
2022/08/22 02:07:16;;;;;;;15.30;6.10;;;16.30;99.90;;;;;;5021275;28;20118;-58
2022/08/22 02:10:00;;;;;;;11.43;5.97;;;16.30;99.90;;;;;;5020216;28;20176;-58
2022/08/22 02:12:40;;;;;;;9.63;5.90;;;16.30;99.90;;;;;;5022912;28;20522;-58
2022/08/22 02:15:21;;;;;;;10.38;5.75;;;16.30;99.90;;;;;;5021263;28;20049;-58
2022/08/22 02:18:01;;;;;;;10.60;5.85;;;16.30;99.90;;;;;;5022982;28;20041;-57
2022/08/22 02:20:34;;;;;;;11.75;6.22;;;16.20;99.90;;;;;;5022159;28;20053;-59
2022/08/22 02:23:16;;;;;;;10.52;6.18;;;16.20;99.90;;;;;;5021263;28;20046;-57
2022/08/22 02:25:48;;;;;;;6.47;4.85;;;16.20;99.90;;;;;;5022303;28;20041;-58
2022/08/22 02:28:45;;;;;;;7.78;5.32;;;16.10;99.90;;;;;;5037522;28;20606;-58
2022/08/22 02:31:24;;;;;;;9.13;5.00;;;16.10;99.90;;;;;;5011676;28;20060;-57
2022/08/22 02:33:57;;;;;;;8.25;5.00;;;16.10;99.90;;;;;;5020741;28;20475;-59
2022/08/22 02:36:46;;;;;;;11.32;5.20;;;16.10;99.90;;;;;;5020711;28;20056;-58
2022/08/22 02:39:25;;;;;;;9.95;5.40;;;16.10;99.90;;;;;;5022304;28;20045;-59
2022/08/22 02:42:10;;;;;;;8.40;5.07;;;16.10;99.90;;;;;;5022437;28;20033;-58
2022/08/22 02:44:40;;;;;;;7.63;4.50;;;16.00;99.90;;;;;;5021420;28;20056;-59
2022/08/22 02:47:12;;;;;;;10.75;5.20;;;16.00;99.90;;;;;;5022237;28;20052;-58
2022/08/22 02:50:10;;;;;;;8.30;5.45;;;16.00;99.90;;;;;;5017946;28;20045;-58
2022/08/22 02:52:45;;;;;;;6.65;5.55;;;15.90;99.90;;;;;;5020328;28;20450;-57
2022/08/22 02:55:36;;;;;;;8.02;4.88;;;15.90;99.90;;;;;;5019474;28;20061;-58
2022/08/22 02:58:16;;;;;;;9.35;5.28;;;16.00;99.90;;;;;;5020645;28;20045;-58
2022/08/22 03:01:08;;;;;;;6.60;4.18;;;15.90;99.90;;;;;;5021315;28;20049;-58
2022/08/22 03:03:40;;;;;;;4.80;3.47;;;15.90;99.90;;;;;;5020882;28;20077;-58
2022/08/22 03:06:32;;;;;;;7.15;3.78;;;15.90;99.90;;;;;;5020407;28;20095;-59
2022/08/22 03:09:19;;;;;;;4.95;3.45;;;15.80;99.90;;;;;;5021659;28;20496;-57
2022/08/22 03:11:51;;;;;;;4.32;3.10;;;15.80;99.90;;;;;;5022180;28;20187;-58
2022/08/22 03:14:42;;;;;;;9.38;3.83;;;15.70;99.90;;;;;;5020888;28;20138;-58
2022/08/22 03:17:37;;;;;;;6.15;3.53;;;15.70;99.90;;;;;;5021167;28;20087;-58
2022/08/22 03:20:19;;;;;;;6.18;3.30;;;15.60;99.90;;;;;;5021003;28;20310;-58
2022/08/22 03:22:47;;;;;;;5.07;3.00;;;15.60;99.90;;;;;;5020155;28;20037;-58
2022/08/22 03:25:20;;;;;;;4.20;2.90;;;15.50;99.90;;;;;;5020797;28;20053;-58
2022/08/22 03:28:17;;;;;;;5.53;3.45;;;15.50;99.90;;;;;;5019952;28;20045;-58
2022/08/22 03:31:14;;;;;;;3.70;2.55;;;15.50;99.90;;;;;;5016465;28;20061;-58
2022/08/22 03:33:41;;;;;;;5.15;2.45;;;15.50;99.90;;;;;;5021350;28;20045;-58
2022/08/22 03:36:12;;;;;;;3.50;2.17;;;15.40;99.90;;;;;;5021063;28;20484;-58
2022/08/22 03:38:47;;;;;;;4.32;2.22;;;15.40;99.90;;;;;;5020167;28;20041;-58
2022/08/22 03:41:28;;;;;;;4.30;2.20;;;15.40;99.90;;;;;;5020849;28;20045;-58
2022/08/22 03:44:18;;;;;;;1.70;1.60;;;15.40;99.90;;;;;;5020876;28;20038;-58
2022/08/22 03:47:15;;;;;;;1.90;1.50;;;15.40;99.90;;;;;;5020287;28;20085;-58
2022/08/22 03:50:10;;;;;;;2.75;1.75;;;15.30;99.90;;;;;;5019005;28;20479;-58
2022/08/22 03:53:06;;;;;;;3.58;2.00;;;15.30;99.90;;;;;;5020386;28;20136;-58
2022/08/22 03:56:02;;;;;;;3.42;1.40;;;15.20;99.90;;;;;;5019993;28;20107;-58
2022/08/22 03:59:28;;;;;;;3.38;1.80;;;15.20;99.90;;;;;;5019905;28;20123;-59
2022/08/22 04:02:18;;;;;;;2.72;1.73;;;15.10;99.90;;;;;;4984714;28;20611;-59
2022/08/22 04:04:59;;;;;;;2.30;1.90;;;15.10;99.90;;;;;;5017917;28;20402;-57
2022/08/22 04:07:47;;;;;;;2.63;2.13;;;15.10;99.90;;;;;;5020703;28;20095;-58
2022/08/22 04:10:36;;;;;;;4.32;2.47;;;15.00;99.90;;;;;;5020859;28;20184;-57
2022/08/22 04:13:20;;;;;;;2.65;2.00;;;15.00;99.90;;;;;;5019545;28;20042;-59
2022/08/22 04:16:05;;;;;;;4.78;2.40;;;15.00;99.90;;;;;;5019537;28;20120;-58
2022/08/22 04:18:59;;;;;;;3.45;2.22;;;15.00;99.90;;;;;;5021508;28;20491;-58
2022/08/22 04:21:31;;;;;;;3.88;2.78;;;14.90;99.90;;;;;;5016756;28;20120;-55
2022/08/22 04:24:18;;;;;;;5.50;2.83;;;14.90;99.90;;;;;;5020306;28;20060;-56
2022/08/22 04:26:51;;;;;;;6.28;3.70;;;14.90;99.90;;;;;;5020460;28;20148;-58
2022/08/22 04:29:24;;;;;;;6.13;2.80;;;14.90;99.90;;;;;;5020650;28;20049;-58
2022/08/22 04:32:04;;;;;;;3.33;3.03;;;14.90;99.90;;;;;;5019423;28;20049;-57
2022/08/22 04:34:44;;;;;;;3.40;2.92;;;14.80;99.90;;;;;;5017840;28;20053;-57
2022/08/22 04:37:28;;;;;;;3.33;2.63;;;14.80;99.90;;;;;;5020105;28;20377;-58
2022/08/22 04:40:13;;;;;;;2.00;1.70;;;14.80;99.90;;;;;;5023414;28;20053;-57
2022/08/22 04:43:31;;;;;;;2.15;1.30;;;14.70;99.90;;;;;;5023976;28;20045;-57
2022/08/22 04:46:25;;;;;;;1.95;1.00;;;14.70;99.90;;;;;;5000538;28;20037;-58
2022/08/22 04:49:00;;;;;;;1.13;0.90;;;14.60;99.90;;;;;;5022421;28;20084;-59
2022/08/22 04:51:36;;;;;;;0.80;0.80;;;14.60;99.90;;;;;;5023795;28;20060;-58
2022/08/22 04:54:47;;;;;;;1.83;1.00;;;14.50;99.90;;;;;;5024898;28;20045;-58
2022/08/22 04:57:18;;;;;;;0.98;0.80;;;14.50;99.90;;;;;;5022572;28;20121;-57
2022/08/22 04:59:44;;;;;;;1.25;1.00;;;14.50;99.90;;;;;;5023134;28;20131;-56
2022/08/22 05:02:19;;;;;;;1.42;1.15;;;14.50;99.90;;;;;;5021875;28;20522;-57
2022/08/22 05:04:50;;;;;;;1.25;1.15;;;14.50;99.90;;;;;;5021692;28;20147;-56
2022/08/22 05:07:27;;;;;;;1.88;1.20;;;14.60;99.90;;;;;;5024420;28;20116;-56
2022/08/22 05:10:16;;;;;;;1.77;1.30;;;14.60;99.90;;;;;;5022390;28;20099;-58
2022/08/22 05:13:08;;;;;;;3.53;1.80;;;14.60;99.90;;;;;;5020819;28;20089;-56
2022/08/22 05:15:38;;;;;;;3.00;1.60;;;14.60;99.90;;;;;;5015327;28;20041;-57
2022/08/22 05:18:08;;;;;;;1.40;1.30;;;14.60;99.90;;;;;;5023586;28;20076;-57
2022/08/22 05:20:35;;;;;;;1.30;1.20;;;14.60;99.90;;;;;;5022802;28;20080;-56
2022/08/22 05:23:12;;;;;;;1.98;1.25;;;14.60;99.90;;;;;;5021404;28;20041;-57
2022/08/22 05:25:41;;;;;;;1.48;1.27;;;14.60;99.90;;;;;;5022518;28;20042;-58
2022/08/22 05:28:36;;;;;;;1.30;1.20;;;14.60;99.90;;;;;;5022747;28;20042;-58
2022/08/22 05:31:08;;;;;;;3.33;1.20;;;14.70;99.90;;;;;;5020090;28;20048;-57
2022/08/22 05:33:40;;;;;;;;;;;14.70;99.90;;;;;;5023174;28;20042;-58
2022/08/22 05:36:15;;;;;;;1.90;1.10;;;14.60;99.90;;;;;;5022252;28;19921;-58
2022/08/22 05:38:47;;;;;;;1.58;0.90;;;14.60;99.90;;;;;;5023250;28;20042;-57
2022/08/22 05:41:21;;;;;;;1.70;1.00;;;14.70;99.90;;;;;;5022578;28;20464;-57
2022/08/22 05:43:48;;;;;;;1.20;1.10;;;14.70;99.90;;;;;;5022928;28;20179;-58
2022/08/22 05:46:34;;;;;;;1.30;1.10;;;14.70;99.90;;;;;;5022122;28;20386;-57
2022/08/22 05:49:02;;;;;;;2.55;1.65;;;14.70;99.90;;;;;;5021037;28;20053;-58
2022/08/22 05:51:38;;;;;;;6.38;2.20;;;14.80;99.90;;;;;;5022682;28;20089;-58
2022/08/22 05:54:13;;;;;;;3.30;2.33;;;14.80;99.90;;;;;;5023747;28;20053;-58
2022/08/22 05:56:46;;;;;;;5.43;2.80;;;14.80;99.90;;;;;;5022742;28;20116;-58
2022/08/22 05:59:23;;;;;;;3.05;2.47;;;14.90;99.90;;;;;;5022005;28;20045;-58
2022/08/22 06:02:11;;;;;;;11.40;5.32;;;15.00;99.90;;;;;;5021601;28;20491;-57
2022/08/22 06:04:53;;;;;;;10.55;4.30;;;15.10;99.90;;;;;;5021497;28;20497;-57
2022/08/22 06:07:27;;;;;;;7.18;4.30;;;15.20;99.90;;;;;;5021354;28;20428;-58
2022/08/22 06:10:25;;;;;;;13.43;7.03;;;15.30;99.90;;;;;;5020781;28;20042;-57
2022/08/22 06:13:22;;;;;;;13.50;6.93;;;15.40;99.90;;;;;;5020705;28;20041;-57
2022/08/22 06:16:05;;;;;;;16.05;6.68;;;15.50;99.90;;;;;;5020766;28;20049;-58
2022/08/22 06:18:33;;;;;;;11.60;6.68;;;15.60;99.90;;;;;;5023037;28;20481;-57
2022/08/22 06:21:01;;;;;;;11.75;6.32;;;15.70;99.90;;;;;;5020149;28;20497;-57
2022/08/22 06:23:36;;;;;;;15.23;7.68;;;15.80;99.90;;;;;;5021651;28;20384;-56
2022/08/22 06:26:04;;;;;;;13.90;7.20;;;16.00;99.90;;;;;;5021284;28;20315;-57
2022/08/22 06:28:52;;;;;;;13.52;7.28;;;16.10;99.90;;;;;;5021923;28;20541;-56
2022/08/22 06:31:21;;;;;;;18.83;7.68;;;16.20;99.90;;;;;;5021329;28;20037;-58
2022/08/22 06:34:14;;;;;;;18.20;7.93;;;16.30;99.90;;;;;;5021866;28;20366;-57
2022/08/22 06:36:44;;;;;;;35.33;9.05;;;16.50;99.90;;;;;;5017985;28;20095;-58
2022/08/22 06:39:16;;;;;;;22.88;8.02;;;16.60;99.90;;;;;;5020259;28;20400;-57
2022/08/22 06:42:07;;;;;;;24.58;8.10;;;16.70;99.90;;;;;;5021727;28;20045;-57
2022/08/22 06:45:06;;;;;;;21.20;7.85;;;16.80;99.90;;;;;;5022121;28;20133;-57
2022/08/22 06:47:40;;;;;;;20.90;7.15;;;17.00;99.90;;;;;;5021749;28;20053;-57
2022/08/22 06:50:18;;;;;;;36.63;10.13;;;17.00;99.90;;;;;;5035234;28;20484;-57
2022/08/22 06:53:15;;;;;;;34.50;9.13;;;17.10;99.90;;;;;;5021713;28;20056;-57
2022/08/22 06:55:57;;;;;;;34.88;8.90;;;17.20;99.90;;;;;;5031218;28;20052;-58
2022/08/22 06:58:31;;;;;;;26.55;7.03;;;17.30;99.90;;;;;;5021431;28;20496;-58
2022/08/22 07:01:19;;;;;;;17.45;7.38;;;17.40;99.90;;;;;;5036247;28;20052;-59
2022/08/22 07:04:05;;;;;;;14.25;6.13;;;17.50;99.90;;;;;;5021293;28;20052;-58
2022/08/22 07:06:36;;;;;;;14.95;5.85;;;17.70;99.90;;;;;;5020335;28;20485;-59
2022/08/22 07:09:03;;;;;;;15.43;6.20;;;17.80;99.90;;;;;;5021759;28;20064;-59
2022/08/22 07:11:38;;;;;;;14.35;5.40;;;17.80;99.90;;;;;;5035580;28;20136;-57
2022/08/22 07:14:10;;;;;;;15.20;5.78;;;17.90;99.90;;;;;;5021316;28;20049;-59
2022/08/22 07:16:41;;;;;;;19.30;5.88;;;18.00;99.90;;;;;;5021128;28;20041;-57
2022/08/22 07:19:12;;;;;;;25.55;6.97;;;18.10;99.90;;;;;;5020624;28;20085;-58
2022/08/22 07:21:46;;;;;;;17.90;6.18;;;18.20;99.90;;;;;;5020251;28;20590;-57
2022/08/22 07:24:20;;;;;;;17.10;5.15;;;18.20;99.90;;;;;;5021482;28;20535;-59
2022/08/22 07:27:01;;;;;;;13.75;5.00;;;18.30;99.90;;;;;;5021725;28;20050;-59
2022/08/22 07:29:44;;;;;;;10.95;4.70;;;18.40;99.90;;;;;;5020160;28;20087;-59
2022/08/22 07:32:09;;;;;;;17.05;5.13;;;18.40;99.90;;;;;;5020163;28;20048;-59
2022/08/22 07:35:14;;;;;;;11.27;4.25;;;18.50;99.90;;;;;;5017025;28;20045;-59
2022/08/22 07:38:02;;;;;;;13.20;4.03;;;18.50;99.90;;;;;;5020044;28;20048;-59
2022/08/22 07:40:59;;;;;;;11.95;4.38;;;18.60;99.90;;;;;;5020587;28;20037;-58
2022/08/22 07:43:38;;;;;;;11.90;4.25;;;18.60;99.90;;;;;;5020382;28;20594;-58
2022/08/22 07:46:21;;;;;;;13.77;3.83;;;18.60;99.90;;;;;;5020384;28;20095;-59
2022/08/22 07:49:14;;;;;;;10.95;3.40;;;18.70;99.90;;;;;;5021435;28;20038;-59
2022/08/22 07:51:43;;;;;;;15.20;4.00;;;18.80;99.90;;;;;;5018249;28;20171;-59
2022/08/22 07:54:18;;;;;;;11.05;3.70;;;18.80;99.90;;;;;;5019079;28;20159;-59
2022/08/22 07:56:58;;;;;;;14.07;4.20;;;18.90;99.90;;;;;;5020950;28;20498;-59
2022/08/22 07:59:27;;;;;;;13.57;4.13;;;19.00;99.90;;;;;;5035087;28;20050;-59
2022/08/22 08:01:57;;;;;;;12.43;3.05;;;19.10;99.90;;;;;;5018577;28;20475;-59
2022/08/22 08:04:29;;;;;;;10.55;3.60;;;19.20;99.90;;;;;;5035083;28;20072;-59
2022/08/22 08:06:58;;;;;;;8.85;3.22;;;19.20;99.90;;;;;;5020207;28;20094;-59
2022/08/22 08:09:31;;;;;;;13.10;3.40;;;19.30;99.90;;;;;;5021430;28;20076;-59
2022/08/22 08:11:59;;;;;;;13.68;3.45;;;19.40;99.90;;;;;;5036096;28;20091;-59
2022/08/22 08:14:25;;;;;;;10.98;3.10;;;19.40;99.90;;;;;;5024670;28;20065;-59
2022/08/22 08:17:16;;;;;;;12.80;3.80;;;19.50;99.90;;;;;;5024791;28;20037;-58
2022/08/22 08:19:44;;;;;;;12.60;3.65;;;19.50;99.90;;;;;;5020071;28;20045;-56
2022/08/22 08:22:17;;;;;;;9.68;3.38;;;19.60;99.90;;;;;;5023489;28;20077;-59
2022/08/22 08:24:44;;;;;;;12.98;3.53;;;19.60;99.90;;;;;;5024426;28;20586;-58
2022/08/22 08:30:12;;;;;;;13.00;3.15;;;19.70;99.90;;;;;;5024572;28;20049;-59
2022/08/22 08:32:40;;;;;;;13.38;3.30;;;19.70;99.90;;;;;;5023336;28;20061;-57
2022/08/22 08:35:40;;;;;;;11.43;3.30;;;19.70;99.90;;;;;;5021643;28;20160;-60
2022/08/22 08:38:17;;;;;;;12.13;3.55;;;19.80;99.90;;;;;;5012300;28;20469;-59
2022/08/22 08:41:17;;;;;;;13.23;3.75;;;19.80;99.90;;;;;;5024554;28;20061;-58
2022/08/22 08:43:57;;;;;;;12.68;3.28;;;19.90;99.90;;;;;;5025214;28;20045;-59
2022/08/22 08:46:52;;;;;;;11.90;3.50;;;20.00;99.90;;;;;;5023226;28;20120;-59
2022/08/22 08:49:33;;;;;;;8.63;3.20;;;20.00;99.90;;;;;;5002879;28;20053;-58
2022/08/22 08:52:37;;;;;;;9.98;3.08;;;20.00;99.90;;;;;;5023535;28;20068;-57
2022/08/22 08:55:06;;;;;;;14.20;3.20;;;20.10;99.90;;;;;;5024477;28;20148;-59
2022/08/22 08:57:34;;;;;;;13.10;3.00;;;20.20;99.90;;;;;;5023373;28;20447;-58
2022/08/22 09:00:11;;;;;;;14.40;3.10;;;20.20;99.90;;;;;;5024712;28;20042;-59
2022/08/22 09:02:42;;;;;;;8.63;2.70;;;20.20;99.90;;;;;;5022603;28;20132;-59
2022/08/22 09:05:34;;;;;;;10.27;2.93;;;20.20;99.90;;;;;;5023722;28;20126;-58
2022/08/22 09:08:38;;;;;;;9.05;2.50;;;20.30;99.90;;;;;;5023009;28;20323;-57
2022/08/22 09:11:34;;;;;;;11.55;2.75;;;20.40;99.90;;;;;;4981374;28;20562;-60
2022/08/22 09:14:20;;;;;;;11.63;2.70;;;20.60;99.90;;;;;;5022227;28;20412;-59
2022/08/22 09:17:07;;;;;;;10.57;2.72;;;20.80;99.90;;;;;;5021493;28;20472;-60
2022/08/22 09:19:53;;;;;;;10.02;2.85;;;21.00;99.90;;;;;;5023272;28;20480;-59
2022/08/22 09:22:35;;;;;;;6.55;2.38;;;21.20;99.90;;;;;;5015481;28;20124;-59
2022/08/22 09:25:25;;;;;;;11.40;2.45;;;21.40;99.90;;;;;;5023614;28;20495;-59
2022/08/22 09:27:55;;;;;;;12.23;2.67;;;21.50;99.90;;;;;;5023668;28;20076;-59
2022/08/22 09:30:25;;;;;;;8.02;2.28;;;21.50;99.90;;;;;;5023270;28;20519;-60
2022/08/22 09:33:05;;;;;;;11.02;2.83;;;21.60;99.90;;;;;;5022222;28;20052;-59
2022/08/22 09:36:05;;;;;;;8.57;2.65;;;21.70;99.90;;;;;;5019885;28;20041;-60
2022/08/22 09:38:39;;;;;;;9.77;2.67;;;21.90;99.90;;;;;;5022429;28;20049;-60
2022/08/22 09:41:31;;;;;;;6.88;2.55;;;22.10;99.90;;;;;;5022299;28;20392;-60
2022/08/22 09:44:08;;;;;;;10.60;2.85;;;22.30;99.90;;;;;;5022269;28;20035;-60
2022/08/22 09:47:09;;;;;;;9.57;2.50;;;22.50;99.70;;;;;;5021582;28;20041;-60
2022/08/22 09:49:57;;;;;;;8.93;2.67;;;22.70;99.70;;;;;;5001377;28;20095;-59
2022/08/22 09:52:41;;;;;;;11.52;3.28;;;22.80;99.50;;;;;;5022442;28;20133;-59
2022/08/22 09:55:40;;;;;;;17.83;2.67;;;22.90;98.80;;;;;;5024016;28;20449;-60
2022/08/22 09:58:15;;;;;;;11.10;2.90;;;23.00;98.90;;;;;;5022931;28;20049;-60
2022/08/22 10:00:49;;;;;;;13.45;3.47;;;23.10;98.20;;;;;;5021387;28;20672;-60
2022/08/22 10:03:32;;;;;;;8.90;2.63;;;23.20;97.80;;;;;;5022445;28;20381;-59
2022/08/22 10:06:06;;;;;;;12.10;2.65;;;23.30;98.00;;;;;;5019927;28;20392;-60
2022/08/22 10:08:52;;;;;;;10.10;2.30;;;23.40;97.50;;;;;;5023229;28;20531;-60
2022/08/22 10:11:26;;;;;;;10.95;2.55;;;23.70;97.20;;;;;;5022363;28;20124;-60
2022/08/22 10:13:58;;;;;;;8.98;2.65;;;23.80;96.50;;;;;;5021437;28;20038;-60
2022/08/22 10:16:42;;;;;;;9.23;2.90;;;24.00;95.50;;;;;;5022478;28;20064;-60
2022/08/22 10:19:19;;;;;;;10.98;3.00;;;24.10;95.60;;;;;;5020656;28;20500;-58
2022/08/22 10:22:05;;;;;;;12.40;2.22;;;24.30;95.10;;;;;;5022525;28;20049;-60
2022/08/22 10:24:51;;;;;;;11.77;3.03;;;24.40;94.90;;;;;;5002200;28;20484;-59
2022/08/22 10:27:33;;;;;;;10.23;2.50;;;24.60;94.40;;;;;;5021555;28;20041;-60
2022/08/22 10:30:12;;;;;;;12.40;2.70;;;24.80;93.40;;;;;;5021205;28;20100;-60
2022/08/22 10:32:52;;;;;;;9.52;2.40;;;24.90;92.90;;;;;;5022485;28;20045;-60
2022/08/22 10:35:53;;;;;;;9.45;2.88;;;25.00;93.00;;;;;;5018084;28;20107;-60
2022/08/22 10:38:31;;;;;;;10.02;2.33;;;25.20;92.20;;;;;;5037104;28;20049;-60
2022/08/22 10:41:13;;;;;;;12.68;3.40;;;25.30;92.30;;;;;;5021069;28;20072;-59
2022/08/22 10:44:13;;;;;;;11.87;3.07;;;25.40;91.20;;;;;;5020423;28;20033;-60
2022/08/22 10:46:50;;;;;;;8.32;2.38;;;25.30;91.80;;;;;;5037100;28;20038;-60
2022/08/22 10:49:31;;;;;;;8.18;2.60;;;25.40;91.60;;;;;;5022175;28;20124;-59
2022/08/22 10:52:20;;;;;;;7.20;2.33;;;25.40;90.70;;;;;;5020990;28;20133;-60
2022/08/22 10:55:17;;;;;;;10.00;2.92;;;25.40;90.50;;;;;;5020963;28;20042;-60
2022/08/22 10:57:49;;;;;;;8.88;2.45;;;25.30;89.60;;;;;;5021603;28;20404;-60
2022/08/22 11:00:31;;;;;;;8.13;2.33;;;25.00;88.60;;;;;;5020836;28;20622;-61
2022/08/22 11:03:15;;;;;;;7.05;2.80;;;24.80;88.70;;;;;;5020896;28;20403;-59
2022/08/22 11:05:46;;;;;;;8.25;2.53;;;24.80;90.10;;;;;;5020888;28;20052;-61
2022/08/22 11:08:49;;;;;;;10.13;2.50;;;24.90;90.10;;;;;;5019247;28;20044;-61
2022/08/22 11:11:17;;;;;;;;;;;25.10;90.20;;;;;;5021026;28;20100;-61
2022/08/22 11:14:22;;;;;;;12.77;2.70;;;25.20;90.00;;;;;;5021298;28;19916;-60
2022/08/22 11:17:19;;;;;;;10.88;2.90;;;25.10;89.30;;;;;;4998273;28;20045;-61
2022/08/22 11:20:24;;;;;;;11.82;2.72;;;25.00;88.50;;;;;;5019892;28;20049;-60
2022/08/22 11:23:09;;;;;;;14.55;3.25;;;24.90;88.70;;;;;;5020174;28;20052;-59
2022/08/22 11:26:04;;;;;;;8.48;2.40;;;25.00;88.60;;;;;;5021020;28;21073;-61
2022/08/22 11:28:58;;;;;;;12.27;2.70;;;25.00;88.90;;;;;;5019124;28;20570;-60
2022/08/22 11:31:45;;;;;;;12.48;3.03;;;25.40;89.30;;;;;;5020449;28;20052;-60
2022/08/22 11:34:45;;;;;;;9.48;2.47;;;25.60;87.60;;;;;;5020867;28;20038;-59
2022/08/22 11:37:52;;;;;;;9.57;2.60;;;25.80;85.40;;;;;;5019677;28;20110;-58
2022/08/22 11:40:39;;;;;;;8.57;2.63;;;25.70;84.50;;;;;;5019104;28;20555;-61
2022/08/22 11:43:37;;;;;;;10.85;2.58;;;25.70;85.20;;;;;;5020154;28;20586;-61
2022/08/22 11:46:27;;;;;;;13.90;3.00;;;25.50;84.60;;;;;;5020388;28;20526;-61
2022/08/22 11:49:04;;;;;;;11.82;2.80;;;25.50;85.80;;;;;;5018084;28;20529;-61
2022/08/22 11:51:50;;;;;;;5.85;2.33;;;25.50;85.00;;;;;;5021033;28;20392;-60
2022/08/22 11:54:24;;;;;;;8.15;2.92;;;25.60;84.40;;;;;;5020415;28;20675;-61
2022/08/22 11:57:11;;;;;;;12.52;2.78;;;25.90;84.40;;;;;;5019732;28;20093;-61
2022/08/22 11:59:55;;;;;;;16.20;3.05;;;26.00;83.20;;;;;;5017830;28;20037;-61
2022/08/22 12:02:33;;;;;;;8.13;2.22;;;25.90;82.70;;;;;;5016764;28;20041;-61
2022/08/22 12:05:16;;;;;;;9.30;2.15;;;26.20;83.50;;;;;;5019207;28;20476;-61
2022/08/22 12:08:00;;;;;;;6.75;2.22;;;26.30;81.00;;;;;;5020405;28;20041;-61
2022/08/22 12:10:31;;;;;;;8.07;2.33;;;26.50;80.60;;;;;;5019150;28;20132;-61
2022/08/22 12:13:06;;;;;;;4.95;2.00;;;26.80;80.70;;;;;;5019659;28;20050;-61
2022/08/22 12:15:55;;;;;;;10.45;2.25;;;27.10;79.80;;;;;;5020340;28;20052;-61
2022/08/22 12:19:26;;;;;;;7.35;1.90;;;27.40;78.00;;;;;;5018910;28;20048;-61
2022/08/22 12:22:22;;;;;;;13.65;2.40;;;27.30;77.50;;;;;;4976024;28;20556;-61
2022/08/22 12:25:11;;;;;;;5.95;2.10;;;27.00;75.50;;;;;;5019873;28;20428;-59
2022/08/22 12:27:48;;;;;;;6.88;2.00;;;26.80;75.70;;;;;;5019405;28;20080;-60
2022/08/22 12:30:14;;;;;;;6.47;1.92;;;26.70;75.70;;;;;;5019484;28;20475;-61
2022/08/22 12:33:14;;;;;;;6.65;2.30;;;26.60;75.60;;;;;;5020306;28;20468;-61
2022/08/22 12:36:25;;;;;;;8.98;2.20;;;26.60;76.40;;;;;;5017653;28;20045;-61
2022/08/22 12:39:33;;;;;;;6.60;1.88;;;26.80;77.30;;;;;;5006266;28;20124;-61
2022/08/22 12:42:11;;;;;;;8.63;1.88;;;26.90;76.30;;;;;;4977955;28;20544;-59
2022/08/22 12:44:53;;;;;;;5.55;2.17;;;26.70;75.10;;;;;;5013007;28;20092;-61
2022/08/22 12:47:35;;;;;;;7.88;1.75;;;26.50;74.00;;;;;;5018300;28;20076;-61
2022/08/22 12:50:35;;;;;;;6.30;2.13;;;26.40;74.20;;;;;;5019254;28;20112;-60
2022/08/22 12:53:10;;;;;;;9.00;2.33;;;26.20;73.90;;;;;;5019365;28;20049;-61
2022/08/22 12:55:53;;;;;;;8.95;2.03;;;26.10;74.20;;;;;;5017882;28;20049;-61
2022/08/22 12:58:31;;;;;;;6.68;2.00;;;25.90;74.70;;;;;;5034208;28;20377;-59
2022/08/22 13:01:05;;;;;;;8.07;2.35;;;26.20;75.50;;;;;;5023005;28;20091;-61
2022/08/22 13:03:41;;;;;;;7.50;2.03;;;26.30;74.40;;;;;;5022884;28;20160;-61
2022/08/22 13:06:47;;;;;;;7.07;1.92;;;26.30;73.30;;;;;;5022803;28;20617;-61
2022/08/22 13:09:23;;;;;;;7.32;2.17;;;26.20;74.10;;;;;;4980479;28;20098;-60
2022/08/22 13:11:53;;;;;;;8.57;2.30;;;26.40;73.80;;;;;;5018938;28;20488;-61
2022/08/22 13:14:23;;;;;;;9.10;2.53;;;26.70;72.50;;;;;;5024563;28;20526;-61
2022/08/22 13:16:56;;;;;;;8.82;2.10;;;26.90;72.20;;;;;;5022039;28;20116;-60
2022/08/22 13:19:34;;;;;;;9.13;1.83;;;27.10;71.10;;;;;;5038315;28;20050;-61
2022/08/22 13:22:08;;;;;;;8.75;2.85;;;27.30;70.50;;;;;;5022411;28;20048;-61
2022/08/22 13:25:22;;;;;;;6.45;1.70;;;27.50;70.10;;;;;;5021994;28;20487;-61
2022/08/22 13:27:51;;;;;;;6.10;2.00;;;27.40;68.90;;;;;;4981339;28;20046;-61
2022/08/22 13:30:20;;;;;;;10.20;2.30;;;27.40;69.00;;;;;;5018158;28;20128;-60
2022/08/22 13:32:49;;;;;;;9.02;2.05;;;27.40;68.80;;;;;;5023924;28;20478;-61
2022/08/22 13:35:38;;;;;;;4.47;1.52;;;27.50;69.40;;;;;;5021234;28;20125;-60
2022/08/22 13:38:08;;;;;;;8.20;1.90;;;27.70;67.80;;;;;;5022623;28;20499;-60
2022/08/22 13:40:36;;;;;;;7.45;2.15;;;27.90;68.00;;;;;;5038404;28;20125;-60
2022/08/22 13:43:07;;;;;;;7.55;1.58;;;28.00;68.10;;;;;;5021978;28;20045;-61
2022/08/22 13:45:36;;;;;;;5.73;1.60;;;28.20;66.70;;;;;;5022399;28;20037;-61
2022/08/22 13:48:08;;;;;;;6.88;1.88;;;28.40;66.80;;;;;;5021377;28;20041;-61
2022/08/22 13:50:43;;;;;;;10.73;2.13;;;28.30;64.90;;;;;;5022168;28;20033;-59
2022/08/22 13:53:21;;;;;;;9.25;2.10;;;28.30;65.30;;;;;;5019465;28;20069;-61
2022/08/22 13:55:55;;;;;;;7.63;2.00;;;28.40;65.90;;;;;;5021213;28;20049;-61
2022/08/22 13:58:51;;;;;;;11.13;2.25;;;28.60;65.00;;;;;;5022813;28;20790;-61
2022/08/22 14:01:36;;;;;;;5.38;1.60;;;28.60;64.20;;;;;;5019346;28;20080;-61
2022/08/22 14:04:27;;;;;;;5.47;1.83;;;28.50;64.50;;;;;;5023028;28;20057;-59